»·PEaware :: N4213M KRDD-KPDX

N4213M :: KRDD-KPDX

FLIGHT INFORMATION

Flight Status: Arrived
Operator: Privately registered:
United States
More flights under this callsign
Pilot: Derek J. (19740)
Aircraft: Unknown
(EPIC)
More flights by this aircraft type
Origin: KRDD Redding Mun
United States
Destination: KPDX Portland Intl
United States
More flights between these airports :: More routes between these airports
Route: +FJS V495 UBG
File this flight plan on PilotEdge
Remarks:
Altitude:
(Current/Filed)
16,500ft
Speed:
(Current/Filed)
200kts
Departed: 21-Jul-18 06:02 PM
Arrived: 21-Jul-18 07:29 PM
Distance/Time
Traveled:
305nm/1:27
Distance/Time
To Go:
Arrived

Flight Plot

Page will automatically refresh every two minutes.

Flight plan parsing failed; only flown route is shown


Map Options




Map Legend


Flown Route
Filed Route
Departure Airport
Arrival Airport
Navaid (VOR, NDB)
Fix

Horizontal Profiles

Position Reports

Time Latitude Longitude Heading Altitude Ground
Speed
21-Jul-18 17:51 40.509283 -122.298003 178 494ft 0kts
21-Jul-18 17:52 40.509282 -122.298003 178 494ft 0kts
21-Jul-18 17:53 40.509282 -122.298003 178 494ft 0kts
21-Jul-18 17:54 40.510048 -122.298608 359 494ft 10kts
21-Jul-18 17:55 40.510528 -122.298608 0 494ft 0kts
21-Jul-18 17:56 40.510528 -122.298608 0 494ft 0kts
21-Jul-18 17:57 40.510539 -122.298608 0 494ft 1kts
21-Jul-18 17:58 40.515079 -122.298052 24 494ft 26kts
21-Jul-18 17:59 40.520216 -122.296002 58 494ft 0kts
21-Jul-18 18:00 40.520216 -122.296002 58 494ft 0kts
21-Jul-18 18:01 40.520216 -122.296002 58 494ft 0kts
21-Jul-18 18:02 40.520261 -122.295847 80 495ft 12kts
21-Jul-18 18:03 40.493593 -122.296678 182 1445ft 147kts
21-Jul-18 18:04 40.464169 -122.267286 86 2433ft 170kts
21-Jul-18 18:05 40.512478 -122.248507 3 2420ft 215kts
21-Jul-18 18:06 40.573432 -122.244128 3 3809ft 192kts
21-Jul-18 18:07 40.624427 -122.239547 3 6743ft 190kts
21-Jul-18 18:08 40.677286 -122.234928 346 9219ft 195kts
21-Jul-18 18:09 40.722965 -122.272408 326 11610ft 197kts
21-Jul-18 18:10 40.771024 -122.308975 327 13823ft 205kts
21-Jul-18 18:11 40.821617 -122.346069 327 15800ft 213kts
21-Jul-18 18:12 40.877735 -122.386973 327 16507ft 263kts
21-Jul-18 18:13 40.942169 -122.433755 327 16501ft 266kts
21-Jul-18 18:14 41.006522 -122.480603 327 16511ft 269kts
21-Jul-18 18:15 41.071259 -122.527864 326 16550ft 265kts
21-Jul-18 18:16 41.133851 -122.573686 325 16604ft 260kts
21-Jul-18 18:17 41.195864 -122.619209 325 16640ft 257kts
21-Jul-18 18:18 41.256380 -122.663708 324 16655ft 257kts
21-Jul-18 18:19 41.318980 -122.709837 324 16656ft 259kts
21-Jul-18 18:20 41.382073 -122.756442 325 16305ft 265kts
21-Jul-18 18:21 41.447525 -122.804128 334 14528ft 271kts
21-Jul-18 18:22 41.516848 -122.822201 28 12538ft 271kts
21-Jul-18 18:23 41.580692 -122.780188 352 10544ft 252kts
21-Jul-18 18:24 41.644019 -122.808931 329 8558ft 236kts
21-Jul-18 18:25 41.701086 -122.848734 330 7727ft 206kts
21-Jul-18 18:26 41.753577 -122.884828 330 7519ft 211kts
21-Jul-18 18:27 41.806074 -122.921006 330 7518ft 216kts
21-Jul-18 18:28 41.860126 -122.958324 330 7515ft 224kts
21-Jul-18 18:29 41.906305 -122.990243 328 10394ft 185kts
21-Jul-18 18:30 41.953540 -123.023031 329 12727ft 197kts
21-Jul-18 18:31 42.002810 -123.057210 327 15309ft 204kts
21-Jul-18 18:32 42.056146 -123.094380 328 16507ft 244kts
21-Jul-18 18:33 42.121868 -123.130331 336 16499ft 267kts
21-Jul-18 18:34 42.191660 -123.164806 336 16498ft 268kts
21-Jul-18 18:35 42.261085 -123.198831 336 16497ft 262kts
21-Jul-18 18:36 42.329769 -123.227363 348 16500ft 262kts
21-Jul-18 18:37 42.402510 -123.240587 349 16499ft 266kts
21-Jul-18 18:38 42.475949 -123.253076 350 16499ft 268kts
21-Jul-18 18:39 42.550303 -123.263561 351 16499ft 269kts
21-Jul-18 18:40 42.624371 -123.273880 351 16511ft 268kts
21-Jul-18 18:41 42.698160 -123.284163 351 16529ft 268kts
21-Jul-18 18:42 42.772360 -123.294528 351 16543ft 268kts
21-Jul-18 18:43 42.846157 -123.304858 351 16551ft 268kts
21-Jul-18 18:44 42.920028 -123.315201 350 16555ft 268kts
21-Jul-18 18:45 42.993704 -123.325571 350 16553ft 264kts
21-Jul-18 18:46 43.065665 -123.335733 350 16551ft 258kts
21-Jul-18 18:47 43.134993 -123.345522 350 16554ft 255kts
21-Jul-18 18:48 43.205222 -123.355012 351 16554ft 253kts
21-Jul-18 18:49 43.274752 -123.363701 351 16553ft 249kts
21-Jul-18 18:50 43.343273 -123.372247 351 16553ft 247kts
21-Jul-18 18:51 43.410434 -123.380638 351 16553ft 245kts
21-Jul-18 18:52 43.478182 -123.389118 351 16553ft 246kts
21-Jul-18 18:53 43.546577 -123.397699 351 16553ft 247kts
21-Jul-18 18:54 43.615018 -123.406303 351 16553ft 248kts
21-Jul-18 18:55 43.683428 -123.414923 351 16553ft 248kts
21-Jul-18 18:56 43.751925 -123.423574 351 16567ft 247kts
21-Jul-18 18:57 43.813022 -123.431308 351 16580ft 247kts
21-Jul-18 18:58 43.881374 -123.439979 351 16589ft 247kts
21-Jul-18 18:59 43.949541 -123.448606 352 16588ft 247kts
21-Jul-18 19:00 44.006801 -123.453831 352 16588ft 248kts
21-Jul-18 19:01 44.075472 -123.449780 9 16589ft 253kts
21-Jul-18 19:02 44.148920 -123.423908 10 16590ft 254kts
21-Jul-18 19:03 44.205658 -123.403076 11 16501ft 251kts
21-Jul-18 19:04 44.272955 -123.378148 11 16505ft 251kts
21-Jul-18 19:05 44.340451 -123.353061 11 16508ft 251kts
21-Jul-18 19:06 44.407627 -123.328030 11 16507ft 251kts
21-Jul-18 19:07 44.474823 -123.302929 11 16508ft 251kts
21-Jul-18 19:08 44.542379 -123.278096 10 16508ft 253kts
21-Jul-18 19:09 44.610616 -123.253174 10 16508ft 254kts
21-Jul-18 19:10 44.678640 -123.228280 10 16506ft 253kts
21-Jul-18 19:11 44.746417 -123.203424 10 16504ft 253kts
21-Jul-18 19:12 44.814411 -123.178443 11 15487ft 249kts
21-Jul-18 19:13 44.878765 -123.154729 11 14463ft 235kts
21-Jul-18 19:14 44.942968 -123.131031 12 13460ft 242kts
21-Jul-18 19:15 45.008271 -123.106850 12 12458ft 245kts
21-Jul-18 19:16 45.073264 -123.082718 13 11449ft 236kts
21-Jul-18 19:17 45.133306 -123.060387 13 10469ft 226kts
21-Jul-18 19:18 45.193554 -123.037909 13 9481ft 226kts
21-Jul-18 19:19 45.253284 -123.015604 13 8487ft 221kts
21-Jul-18 19:20 45.311994 -122.993624 13 7494ft 218kts
21-Jul-18 19:21 45.361176 -122.946902 42 6561ft 217kts
21-Jul-18 19:22 45.401362 -122.882135 47 5860ft 214kts
21-Jul-18 19:23 45.437030 -122.820808 47 5152ft 195kts
21-Jul-18 19:24 45.471118 -122.761611 47 4456ft 194kts
21-Jul-18 19:25 45.504177 -122.704022 47 3779ft 194kts
21-Jul-18 19:26 45.537852 -122.646603 45 3423ft 192kts
21-Jul-18 19:27 45.575863 -122.588208 86 3182ft 211kts
21-Jul-18 19:28 45.557652 -122.535039 5 1808ft 111kts
21-Jul-18 19:29 45.580618 -122.559401 300 185ft 110kts
21-Jul-18 19:30 45.586282 -122.576378 205 20ft 0kts
21-Jul-18 19:31 45.585363 -122.577462 270 20ft 13kts
21-Jul-18 19:32 45.585388 -122.578266 118 20ft 0kts

Navigation Log

Ident Type
Flight plan parsing failed, navigation log unavailable